createdAt,value
2023-03-18T00:00:25.547Z,44.33
2023-03-18T00:02:52.659Z,44.38
2023-03-18T00:05:20.211Z,44.61
2023-03-18T00:07:47.551Z,44.21
2023-03-18T00:10:14.121Z,44.53
2023-03-18T00:12:41.413Z,44.27
2023-03-18T00:15:10.722Z,44.19
2023-03-18T00:17:37.840Z,44.07
2023-03-18T00:20:06.889Z,44.15
2023-03-18T00:22:34.656Z,44.26
2023-03-18T00:25:02.138Z,44.07
2023-03-18T00:27:28.957Z,44.19
2023-03-18T00:29:56.064Z,44.13
2023-03-18T00:32:23.125Z,44.01
2023-03-18T00:34:50.665Z,44.39
2023-03-18T00:37:30.051Z,43.98
2023-03-18T00:40:07.780Z,44.27
2023-03-18T00:42:47.466Z,44.47
2023-03-18T00:45:16.157Z,44.28
2023-03-18T00:47:43.655Z,44.22
2023-03-18T00:50:11.547Z,43.87
2023-03-18T00:52:38.121Z,44.25
2023-03-18T00:55:05.325Z,44.02
2023-03-18T00:57:31.858Z,44.06
2023-03-18T00:59:59.280Z,44.13
2023-03-18T01:02:26.444Z,43.98
2023-03-18T01:04:53.281Z,43.91
2023-03-18T01:07:19.816Z,43.97
2023-03-18T01:09:46.734Z,44.08
2023-03-18T01:12:13.620Z,44.30
2023-03-18T01:14:41.123Z,43.91
2023-03-18T01:17:09.005Z,44.10
2023-03-18T01:19:36.538Z,43.73
2023-03-18T01:22:03.872Z,44.41
2023-03-18T01:24:30.783Z,43.87
2023-03-18T01:26:58.177Z,44.19
2023-03-18T01:29:25.175Z,43.77
2023-03-18T01:31:51.749Z,43.99
2023-03-18T01:34:18.885Z,44.17
2023-03-18T01:36:46.428Z,44.20
2023-03-18T01:39:12.973Z,44.63
2023-03-18T01:41:40.222Z,44.25
2023-03-18T01:44:23.231Z,44.58
2023-03-18T01:46:51.394Z,44.32
2023-03-18T01:49:22.079Z,44.54
2023-03-18T01:51:57.705Z,44.27
2023-03-18T01:54:26.303Z,44.27
2023-03-18T01:56:53.918Z,44.19
2023-03-18T01:59:23.928Z,44.51
2023-03-18T02:01:56.217Z,44.21
2023-03-18T02:04:27.529Z,44.52
2023-03-18T02:06:54.101Z,44.61
2023-03-18T02:09:20.663Z,44.56
2023-03-18T02:11:51.686Z,44.21
2023-03-18T02:14:24.910Z,44.31
2023-03-18T02:17:01.089Z,44.25
2023-03-18T02:19:58.331Z,44.35
2023-03-18T02:22:47.355Z,44.46
2023-03-18T02:25:31.932Z,44.21
2023-03-18T02:28:03.435Z,44.60
2023-03-18T02:30:37.670Z,44.43
2023-03-18T02:33:05.177Z,44.60
2023-03-18T02:35:32.740Z,44.71
2023-03-18T02:37:59.314Z,44.26
2023-03-18T02:40:37.046Z,44.25
2023-03-18T02:43:19.414Z,44.30
2023-03-18T02:46:22.096Z,44.15
2023-03-18T02:48:49.896Z,44.50
2023-03-18T02:51:17.302Z,44.47
2023-03-18T02:53:43.996Z,44.52
2023-03-18T02:56:11.138Z,44.50
2023-03-18T02:58:38.126Z,44.38
2023-03-18T03:01:08.159Z,44.40
2023-03-18T03:03:35.704Z,44.35
2023-03-18T03:06:03.304Z,44.37
2023-03-18T03:08:30.484Z,44.51
2023-03-18T03:10:57.540Z,44.63
2023-03-18T03:13:24.888Z,44.43
2023-03-18T03:15:51.810Z,44.65
2023-03-18T03:18:18.535Z,44.33
2023-03-18T03:20:45.657Z,45.01
2023-03-18T03:23:15.612Z,44.51
2023-03-18T03:25:44.798Z,44.48
2023-03-18T03:28:13.465Z,44.49
2023-03-18T03:30:40.560Z,44.53
2023-03-18T03:33:07.186Z,44.30
2023-03-18T03:35:34.525Z,44.47
2023-03-18T03:38:01.085Z,44.65
2023-03-18T03:40:28.421Z,44.48
2023-03-18T03:42:54.976Z,44.55
2023-03-18T03:45:21.715Z,44.72
2023-03-18T03:47:48.337Z,44.48
2023-03-18T03:50:17.052Z,44.12
2023-03-18T03:52:44.500Z,44.68
2023-03-18T03:55:13.312Z,44.60
2023-03-18T03:57:41.858Z,44.89
2023-03-18T04:00:14.340Z,44.50
2023-03-18T04:02:43.461Z,44.70
2023-03-18T04:05:11.882Z,44.63
2023-03-18T04:07:39.571Z,44.47
2023-03-18T04:10:09.446Z,44.28
2023-03-18T04:12:36.507Z,44.76
2023-03-18T04:15:03.332Z,44.88
2023-03-18T04:17:30.129Z,44.83
2023-03-18T04:19:56.738Z,44.78
2023-03-18T04:22:24.062Z,44.63
2023-03-18T04:24:50.874Z,45.02
2023-03-18T04:27:18.517Z,44.40
2023-03-18T04:29:45.293Z,44.89
2023-03-18T04:32:11.860Z,45.06
2023-03-18T04:34:38.611Z,44.69
2023-03-18T04:37:05.166Z,44.52
2023-03-18T04:39:31.674Z,44.63
2023-03-18T04:41:58.347Z,44.50
2023-03-18T04:44:25.456Z,44.68
2023-03-18T04:46:53.638Z,45.05
2023-03-18T04:49:21.309Z,44.64
2023-03-18T04:51:47.836Z,44.72
2023-03-18T04:54:14.325Z,44.99
2023-03-18T04:56:41.376Z,44.30
2023-03-18T04:59:07.893Z,45.03
2023-03-18T05:01:34.924Z,44.60
2023-03-18T05:04:02.155Z,44.75
2023-03-18T05:06:31.701Z,44.58
2023-03-18T05:08:58.866Z,44.77
2023-03-18T05:11:26.749Z,45.16
2023-03-18T05:13:53.406Z,44.96
2023-03-18T05:16:20.014Z,45.27
2023-03-18T05:18:46.889Z,44.99
2023-03-18T05:21:13.459Z,45.25
2023-03-18T05:23:39.942Z,44.93
2023-03-18T05:26:06.656Z,45.15
2023-03-18T05:28:34.171Z,44.79
2023-03-18T05:31:00.703Z,44.69
2023-03-18T05:33:27.423Z,45.17
2023-03-18T05:35:54.013Z,45.23
2023-03-18T05:38:20.651Z,44.79
2023-03-18T05:40:47.303Z,44.92
2023-03-18T05:43:13.961Z,44.82
2023-03-18T05:45:41.017Z,45.14
2023-03-18T05:48:08.177Z,44.94
2023-03-18T05:50:38.204Z,45.24
2023-03-18T05:53:06.545Z,45.23
2023-03-18T05:55:33.782Z,45.23
2023-03-18T05:58:00.829Z,45.19
2023-03-18T06:00:31.338Z,45.25
2023-03-18T06:02:59.482Z,45.29
2023-03-18T06:05:27.177Z,45.33
2023-03-18T06:07:54.784Z,44.88
2023-03-18T06:10:23.024Z,45.54
2023-03-18T06:12:50.614Z,45.29
2023-03-18T06:15:18.777Z,45.26
2023-03-18T06:17:45.587Z,45.01
2023-03-18T06:20:14.183Z,45.36
2023-03-18T06:22:41.049Z,45.11
2023-03-18T06:25:08.265Z,45.10
2023-03-18T06:27:35.694Z,45.05
2023-03-18T06:30:04.634Z,45.38
2023-03-18T06:32:33.028Z,45.49
2023-03-18T06:35:00.268Z,44.97
2023-03-18T06:37:26.824Z,45.35
2023-03-18T06:39:53.612Z,44.81
2023-03-18T06:42:20.302Z,45.13
2023-03-18T06:44:50.737Z,44.90
2023-03-18T06:47:22.220Z,45.11
2023-03-18T06:49:49.610Z,45.05
2023-03-18T06:52:17.224Z,44.88
2023-03-18T06:54:44.673Z,45.36
2023-03-18T06:57:12.047Z,45.05
2023-03-18T06:59:39.358Z,45.14
2023-03-18T07:02:06.104Z,45.15
2023-03-18T07:04:33.895Z,45.42
2023-03-18T07:07:00.567Z,45.13
2023-03-18T07:09:28.328Z,45.38
2023-03-18T07:11:54.959Z,45.71
2023-03-18T07:14:21.716Z,45.06
2023-03-18T07:16:48.264Z,45.08
2023-03-18T07:19:16.223Z,45.29
2023-03-18T07:21:43.786Z,44.99
2023-03-18T07:24:11.365Z,45.34
2023-03-18T07:26:38.426Z,45.13
2023-03-18T07:29:05.476Z,45.29
2023-03-18T07:31:32.083Z,45.66
2023-03-18T07:33:59.170Z,45.39
2023-03-18T07:36:26.746Z,45.30
2023-03-18T07:38:53.591Z,45.61
2023-03-18T07:41:20.172Z,45.78
2023-03-18T07:43:46.727Z,45.18
2023-03-18T07:46:13.312Z,45.56
2023-03-18T07:48:39.911Z,45.15
2023-03-18T07:51:06.814Z,45.43
2023-03-18T07:53:34.020Z,45.65
2023-03-18T07:56:00.770Z,45.40
2023-03-18T07:58:27.376Z,45.67
2023-03-18T08:00:54.276Z,45.48
2023-03-18T08:03:21.157Z,45.75
2023-03-18T08:05:47.774Z,45.49
2023-03-18T08:08:14.271Z,45.31
2023-03-18T08:10:40.807Z,45.83
2023-03-18T08:13:07.304Z,45.62
2023-03-18T08:15:34.612Z,45.36
2023-03-18T08:18:01.716Z,45.49
2023-03-18T08:20:28.774Z,45.33
2023-03-18T08:22:56.017Z,45.04
2023-03-18T08:25:23.628Z,45.21
2023-03-18T08:27:50.842Z,45.52
2023-03-18T08:30:17.589Z,45.25
2023-03-18T08:32:44.402Z,44.91
2023-03-18T08:35:12.723Z,44.99
2023-03-18T08:37:39.294Z,44.54
2023-03-18T08:40:06.518Z,44.69
2023-03-18T08:42:33.069Z,45.00
2023-03-18T08:44:59.726Z,45.22
2023-03-18T08:47:27.374Z,45.45
2023-03-18T08:49:53.916Z,45.00
2023-03-18T08:52:22.365Z,44.67
2023-03-18T08:54:49.286Z,45.02
2023-03-18T08:57:16.039Z,44.93
2023-03-18T08:59:42.632Z,45.25
2023-03-18T09:02:16.861Z,45.03
2023-03-18T09:04:44.082Z,44.92
2023-03-18T09:07:11.576Z,44.87
2023-03-18T09:09:43.686Z,44.77
2023-03-18T09:12:12.575Z,44.80
2023-03-18T09:14:40.415Z,44.74
2023-03-18T09:17:06.959Z,44.27
2023-03-18T09:19:33.546Z,44.77
2023-03-18T09:22:00.129Z,44.41
2023-03-18T09:24:26.799Z,44.56
2023-03-18T09:26:53.418Z,45.09
2023-03-18T09:29:19.969Z,44.60
2023-03-18T09:31:46.975Z,44.63
2023-03-18T09:34:14.506Z,45.13
2023-03-18T09:36:42.170Z,44.66
2023-03-18T09:39:10.041Z,45.06
2023-03-18T09:41:51.337Z,44.79
2023-03-18T09:44:24.881Z,44.49
2023-03-18T09:47:18.718Z,44.80
2023-03-18T09:50:27.640Z,45.20
2023-03-18T09:53:09.864Z,44.94
2023-03-18T09:55:53.090Z,44.84
2023-03-18T09:58:46.571Z,45.01
2023-03-18T10:01:14.001Z,44.60
2023-03-18T10:03:51.211Z,44.46
2023-03-18T10:06:20.802Z,45.29
2023-03-18T10:08:57.059Z,44.98
2023-03-18T10:11:34.126Z,45.15
2023-03-18T10:14:23.630Z,45.09
2023-03-18T10:17:16.218Z,44.65
2023-03-18T10:19:48.219Z,44.97
2023-03-18T10:22:38.132Z,44.89
2023-03-18T10:25:35.336Z,44.37
2023-03-18T10:28:02.034Z,44.42
2023-03-18T10:30:39.144Z,44.20
2023-03-18T10:33:05.734Z,44.41
2023-03-18T10:35:59.383Z,44.36
2023-03-18T10:38:32.081Z,43.94
2023-03-18T10:40:59.055Z,44.13
2023-03-18T10:43:29.822Z,44.39
2023-03-18T10:46:07.454Z,44.00
2023-03-18T10:48:45.943Z,43.92
2023-03-18T10:51:31.427Z,44.14
2023-03-18T10:54:15.731Z,44.65
2023-03-18T10:56:42.974Z,44.35
2023-03-18T10:59:16.342Z,47.05
2023-03-18T11:01:54.151Z,46.82
2023-03-18T11:04:23.771Z,47.23
2023-03-18T11:06:59.487Z,46.92
2023-03-18T11:09:37.168Z,46.31
2023-03-18T11:12:15.090Z,46.43
2023-03-18T11:14:48.125Z,46.01
2023-03-18T11:17:23.799Z,45.98
2023-03-18T11:20:00.857Z,46.19
2023-03-18T11:22:28.081Z,45.91
2023-03-18T11:25:23.498Z,45.57
2023-03-18T11:27:52.423Z,45.38
2023-03-18T11:30:41.078Z,45.91
2023-03-18T11:33:10.773Z,45.99
2023-03-18T11:35:47.301Z,45.45
2023-03-18T11:38:26.052Z,45.95
2023-03-18T11:40:52.907Z,45.30
2023-03-18T11:43:25.504Z,45.70
2023-03-18T11:46:01.895Z,45.75
2023-03-18T11:48:28.441Z,45.76
2023-03-18T11:51:25.158Z,45.27
2023-03-18T11:54:05.028Z,45.72
2023-03-18T11:56:54.273Z,45.78
2023-03-18T11:59:46.285Z,45.86
2023-03-18T12:02:20.688Z,45.11
2023-03-18T12:04:53.750Z,45.03
2023-03-18T12:07:32.563Z,45.56
2023-03-18T12:10:16.295Z,45.34
2023-03-18T12:13:01.930Z,45.15
2023-03-18T12:15:34.721Z,45.33
2023-03-18T12:18:25.909Z,45.46
2023-03-18T12:21:06.851Z,45.23
2023-03-18T12:23:58.000Z,44.75
2023-03-18T12:26:38.204Z,44.65
2023-03-18T12:29:11.357Z,45.10
2023-03-18T12:31:56.088Z,45.26
2023-03-18T12:34:34.241Z,44.85
2023-03-18T12:37:22.118Z,45.25
2023-03-18T12:40:18.430Z,45.21
2023-03-18T12:43:23.107Z,44.53
2023-03-18T12:45:53.768Z,45.33
2023-03-18T12:48:43.231Z,44.35
2023-03-18T12:51:18.417Z,44.60
2023-03-18T12:53:50.182Z,44.52
2023-03-18T12:56:21.477Z,44.65
2023-03-18T12:58:50.401Z,45.21
2023-03-18T13:01:38.911Z,44.60
2023-03-18T13:04:11.935Z,44.50
2023-03-18T13:06:46.037Z,45.30
2023-03-18T13:09:26.797Z,44.55
2023-03-18T13:12:15.265Z,44.86
2023-03-18T13:15:20.631Z,45.09
2023-03-18T13:17:51.373Z,44.63
2023-03-18T13:20:26.707Z,44.83
2023-03-18T13:23:11.098Z,45.22
2023-03-18T13:26:01.904Z,44.58
2023-03-18T13:28:34.031Z,44.97
2023-03-18T13:31:34.449Z,44.64
2023-03-18T13:34:17.064Z,45.04
2023-03-18T13:37:17.611Z,44.74
2023-03-18T13:40:13.179Z,44.41
2023-03-18T13:42:41.279Z,44.84
2023-03-18T13:45:28.731Z,44.92
2023-03-18T13:47:59.298Z,44.90
2023-03-18T13:50:39.699Z,44.74
2023-03-18T13:53:22.362Z,44.87
2023-03-18T13:55:53.405Z,44.71
2023-03-18T13:58:29.822Z,44.81
2023-03-18T14:00:56.869Z,44.34
2023-03-18T14:03:42.625Z,44.21
2023-03-18T14:06:09.190Z,44.67
2023-03-18T14:08:45.476Z,44.57
2023-03-18T14:11:19.719Z,44.52
2023-03-18T14:14:02.979Z,44.37
2023-03-18T14:16:49.740Z,44.65
2023-03-18T14:19:24.186Z,44.24
2023-03-18T14:22:06.076Z,44.37
2023-03-18T14:24:33.156Z,44.64
2023-03-18T14:26:59.581Z,44.84
2023-03-18T14:29:31.068Z,44.89
2023-03-18T14:32:08.353Z,44.13
2023-03-18T14:34:54.998Z,44.18
2023-03-18T14:37:32.609Z,44.40
2023-03-18T14:40:06.230Z,43.99
2023-03-18T14:42:35.569Z,44.53
2023-03-18T14:45:07.019Z,44.49
2023-03-18T14:47:41.869Z,43.88
2023-03-18T14:50:28.595Z,44.50
2023-03-18T14:53:20.775Z,44.02
2023-03-18T14:55:47.960Z,44.14
2023-03-18T14:58:17.397Z,44.50
2023-03-18T15:00:46.260Z,44.05
2023-03-18T15:03:23.533Z,44.04
2023-03-18T15:05:54.664Z,43.84
2023-03-18T15:08:28.071Z,44.11
2023-03-18T15:11:05.838Z,44.10
2023-03-18T15:13:33.367Z,44.40
2023-03-18T15:16:04.163Z,44.19
2023-03-18T15:18:34.418Z,43.79
2023-03-18T15:21:07.184Z,44.08
2023-03-18T15:23:40.151Z,43.44
2023-03-18T15:26:09.773Z,44.25
2023-03-18T15:28:36.609Z,44.49
2023-03-18T15:31:05.745Z,45.29
2023-03-18T15:33:38.167Z,45.72
2023-03-18T15:36:07.286Z,45.77
2023-03-18T15:38:34.219Z,45.33
2023-03-18T15:41:12.085Z,46.11
2023-03-18T15:43:43.945Z,46.47
2023-03-18T15:46:33.065Z,46.53
2023-03-18T15:49:05.483Z,46.45
2023-03-18T15:51:59.346Z,46.16
2023-03-18T15:54:29.907Z,46.65
2023-03-18T15:56:58.790Z,46.67
2023-03-18T15:59:31.150Z,46.11
2023-03-18T16:01:58.879Z,46.12
2023-03-18T16:04:30.160Z,46.44
2023-03-18T16:06:56.823Z,46.27
2023-03-18T16:09:25.059Z,46.27
2023-03-18T16:12:02.304Z,45.94
2023-03-18T16:14:37.522Z,45.52
2023-03-18T16:17:04.042Z,45.61
2023-03-18T16:19:31.019Z,45.98
2023-03-18T16:21:58.780Z,45.50
2023-03-18T16:24:25.960Z,45.35
2023-03-18T16:26:53.795Z,45.48
2023-03-18T16:29:40.646Z,45.71
2023-03-18T16:32:11.592Z,46.11
2023-03-18T16:34:38.734Z,45.87
2023-03-18T16:37:05.294Z,47.18
2023-03-18T16:39:35.104Z,47.14
2023-03-18T16:42:03.176Z,47.47
2023-03-18T16:44:30.541Z,47.22
2023-03-18T16:46:57.616Z,46.73
2023-03-18T16:49:27.043Z,46.52
2023-03-18T16:51:53.902Z,46.17
2023-03-18T16:54:26.442Z,45.46
2023-03-18T16:56:57.444Z,45.11
2023-03-18T16:59:25.052Z,45.57
2023-03-18T17:01:51.878Z,45.09
2023-03-18T17:04:28.562Z,44.62
2023-03-18T17:06:59.773Z,44.60
2023-03-18T17:09:27.556Z,44.46
2023-03-18T17:11:58.262Z,44.08
2023-03-18T17:14:30.062Z,43.89
2023-03-18T17:16:59.338Z,44.19
2023-03-18T17:19:26.510Z,44.05
2023-03-18T17:21:56.421Z,43.90
2023-03-18T17:24:23.294Z,43.88
2023-03-18T17:26:51.567Z,43.57
2023-03-18T17:29:24.115Z,43.70
2023-03-18T17:31:54.554Z,43.37
2023-03-18T17:34:21.448Z,43.47
2023-03-18T17:36:48.642Z,43.70
2023-03-18T17:39:15.569Z,43.70
2023-03-18T17:41:42.804Z,43.32
2023-03-18T17:44:24.529Z,43.36
2023-03-18T17:46:51.165Z,43.32
2023-03-18T17:49:21.645Z,43.32
2023-03-18T17:51:48.857Z,43.26
2023-03-18T17:54:20.677Z,43.08
2023-03-18T17:56:47.895Z,43.57
2023-03-18T17:59:17.029Z,43.52
2023-03-18T18:01:47.204Z,43.27
2023-03-18T18:04:18.677Z,43.07
2023-03-18T18:06:48.102Z,43.12
2023-03-18T18:09:16.518Z,43.07
2023-03-18T18:11:48.907Z,43.24
2023-03-18T18:14:25.035Z,42.95
2023-03-18T18:16:59.501Z,42.96
2023-03-18T18:19:26.075Z,43.12
2023-03-18T18:21:53.241Z,42.75
2023-03-18T18:24:23.780Z,42.82
2023-03-18T18:26:51.136Z,43.32
2023-03-18T18:29:21.626Z,42.75
2023-03-18T18:31:51.535Z,43.56
2023-03-18T18:34:20.113Z,43.13
2023-03-18T18:36:47.855Z,42.80
2023-03-18T18:39:15.263Z,43.15
2023-03-18T18:41:41.922Z,42.75
2023-03-18T18:44:08.550Z,42.81
2023-03-18T18:46:35.953Z,43.25
2023-03-18T18:49:02.697Z,42.60
2023-03-18T18:51:29.350Z,42.84
2023-03-18T18:53:56.028Z,42.81
2023-03-18T18:56:34.451Z,43.23
2023-03-18T18:59:01.998Z,43.21
2023-03-18T19:01:28.515Z,43.00
2023-03-18T19:03:55.571Z,42.98
2023-03-18T19:06:29.419Z,43.11
2023-03-18T19:08:58.138Z,42.71
2023-03-18T19:11:25.764Z,43.00
2023-03-18T19:13:53.626Z,43.06
2023-03-18T19:16:30.680Z,43.04
2023-03-18T19:18:57.905Z,43.19
2023-03-18T19:21:24.436Z,43.55
2023-03-18T19:23:51.208Z,43.74
2023-03-18T19:26:18.563Z,43.32
2023-03-18T19:28:59.297Z,43.33
2023-03-18T19:31:30.637Z,43.05
2023-03-18T19:33:59.475Z,43.75
2023-03-18T19:36:32.232Z,43.16
2023-03-18T19:39:02.061Z,43.81
2023-03-18T19:41:29.503Z,43.41
2023-03-18T19:44:03.823Z,43.89
2023-03-18T19:46:39.393Z,43.83
2023-03-18T19:49:35.292Z,44.38
2023-03-18T19:52:03.045Z,43.67
2023-03-18T19:57:25.011Z,44.15
2023-03-18T19:59:57.291Z,44.11
2023-03-18T20:02:27.259Z,44.36
2023-03-18T20:04:56.510Z,44.32
2023-03-18T20:07:26.094Z,44.64
2023-03-18T20:09:53.654Z,44.49
2023-03-18T20:12:26.448Z,44.86
2023-03-18T20:14:53.292Z,44.52
2023-03-18T20:17:25.822Z,44.54
2023-03-18T20:19:52.413Z,44.52
2023-03-18T20:22:36.537Z,44.52
2023-03-18T20:25:05.333Z,44.97
2023-03-18T20:27:31.938Z,45.07
2023-03-18T20:29:58.672Z,44.94
2023-03-18T20:32:25.278Z,44.76
2023-03-18T20:34:52.057Z,45.10
2023-03-18T20:37:35.968Z,44.68
2023-03-18T20:40:04.332Z,44.71
2023-03-18T20:42:31.779Z,44.59
2023-03-18T20:44:58.330Z,44.74
2023-03-18T20:47:27.781Z,44.69
2023-03-18T20:49:54.802Z,45.26
2023-03-18T20:52:26.619Z,44.80
2023-03-18T20:54:54.310Z,44.95
2023-03-18T20:57:21.041Z,45.16
2023-03-18T20:59:47.761Z,45.12
2023-03-18T21:02:35.342Z,44.80
2023-03-18T21:05:03.142Z,44.60
2023-03-18T21:07:30.203Z,44.79
2023-03-18T21:09:56.800Z,44.49
2023-03-18T21:12:24.248Z,44.43
2023-03-18T21:14:51.153Z,44.76
2023-03-18T21:17:23.758Z,44.45
2023-03-18T21:19:51.682Z,44.31
2023-03-18T21:22:26.062Z,44.19
2023-03-18T21:24:52.854Z,44.24
2023-03-18T21:27:21.678Z,43.99
2023-03-18T21:29:52.352Z,43.97
2023-03-18T21:32:25.696Z,43.90
2023-03-18T21:34:52.653Z,43.94
2023-03-18T21:37:22.184Z,43.79
2023-03-18T21:39:49.496Z,43.58
2023-03-18T21:42:24.291Z,43.78
2023-03-18T21:44:51.529Z,43.52
2023-03-18T21:47:20.877Z,43.53
2023-03-18T21:49:47.949Z,43.42
2023-03-18T21:52:36.102Z,43.12
2023-03-18T21:55:04.440Z,43.21
2023-03-18T21:57:31.241Z,43.48
2023-03-18T21:59:57.775Z,43.67
2023-03-18T22:02:33.288Z,43.80
2023-03-18T22:05:07.661Z,44.10
2023-03-18T22:07:34.188Z,43.66
2023-03-18T22:10:01.134Z,43.80
2023-03-18T22:12:33.212Z,44.08
2023-03-18T22:15:00.719Z,44.02
2023-03-18T22:17:32.604Z,44.16
2023-03-18T22:20:01.394Z,43.80
2023-03-18T22:22:36.954Z,43.96
2023-03-18T22:25:04.345Z,43.89
2023-03-18T22:27:31.845Z,43.95
2023-03-18T22:30:00.055Z,44.01
2023-03-18T22:32:47.096Z,43.93
2023-03-18T22:35:15.404Z,44.13
2023-03-18T22:37:42.639Z,43.95
2023-03-18T22:40:18.968Z,43.86
2023-03-18T22:42:47.649Z,43.83
2023-03-18T22:45:20.022Z,43.99
2023-03-18T22:47:46.583Z,44.07
2023-03-18T22:50:13.239Z,44.02
2023-03-18T22:52:39.781Z,43.94
2023-03-18T22:55:22.891Z,44.21
2023-03-18T22:57:50.205Z,44.01
2023-03-18T23:00:22.954Z,44.23
2023-03-18T23:02:50.627Z,44.63
2023-03-18T23:05:19.860Z,44.70
2023-03-18T23:07:46.616Z,44.53
2023-03-18T23:10:14.037Z,44.51
2023-03-18T23:12:40.699Z,44.80
2023-03-18T23:15:08.231Z,44.65
2023-03-18T23:17:34.805Z,44.74
2023-03-18T23:20:01.418Z,44.92
2023-03-18T23:22:33.863Z,44.95
2023-03-18T23:25:00.633Z,44.83
2023-03-18T23:27:28.282Z,44.63
2023-03-18T23:29:56.199Z,45.32
2023-03-18T23:32:23.864Z,44.84
2023-03-18T23:34:50.480Z,44.84
2023-03-18T23:37:17.587Z,45.09
2023-03-18T23:39:46.124Z,45.24
2023-03-18T23:42:17.684Z,44.81
2023-03-18T23:44:44.752Z,45.08
2023-03-18T23:47:13.024Z,44.89
2023-03-18T23:49:39.838Z,45.49
2023-03-18T23:52:12.552Z,45.06
2023-03-18T23:54:39.699Z,45.66
2023-03-18T23:57:08.734Z,45.66
2023-03-18T23:59:36.682Z,45.67
